x

Buoy B01 - Western Maine Shelf (44030) Wave Buoy

7:04pm - Mon 3rd Aug 2015 All times are EDT. -4 hours from GMT.

  • Sig Wave height 3.6ft
  • Peak Period 5s
  • Wind
    16mph, 18mph gusts
  • Sea Temp 64°f
  • Air Temp 67°f
  • Sea Pressure 1006.2mb
  • Buoy B01 - Western Maine Shelf
  • Buoy B01 - Western Maine Shelf

More Historic Weather Station data

Upgrade to MSW Pro to gain access to the past 30 days of data for over 8000 Wavebouys and Weather Stations around the globe.

Join Pro

Comparision Forecast

View Surf forecast
   
Mon 08/03 7:04pm 3.5ft 5s 16 18 mph 1006.2mb 64f 67f
6:04pm 3.5ft 4s 18 20 mph 1005.6mb 64f 69f
5:04pm 3.5ft 5s 20 25 mph 1005.9mb 65f 70f
4:04pm 3.5ft 5s 18 22 mph 1006.3mb 65f 69f
3:04pm 3.5ft 5s 18 20 mph 1006.9mb 65f 69f
2:04pm 3ft 4s 18 20 mph 1007.3mb 65f 69f
1:04pm 3ft 8s 18 20 mph 1007.8mb 65f 68f
12:04pm 3.5ft 8s 16 18 mph 1008.4mb 65f 68f
11:04am 3ft 8s 13 16 mph 1009.1mb 64f 67f
10:04am 2.5ft 6s 11 13 mph 1009.5mb 64f 66f
9:04am 3ft 8s 9 11 mph 1009.7mb 63f 65f
8:04am 3ft 8s 11 13 mph 1009.9mb 63f 66f
7:04am 2ft 4s 11 13 mph 1010mb 63f 66f
6:04am 2.5ft 4s 11
mph
1009.5mb 63f 66f
5:04am 3ft 11s 11 13 mph 1009.4mb 63f 66f
4:04am 2.5ft 8s 9 11 mph 1008.9mb 64f 65f
3:04am 2.5ft 8s 9
mph
1009.2mb 64f 66f
2:04am 3ft 8s 11 13 mph 1009.2mb 64f 67f
1:04am 2ft 6s 13
mph
1009.5mb 65f 67f
12:04am  -   -  16
mph
1009.4mb 65f 69f
Sun 08/02 11:04pm 2.5ft 11s 11 13 mph 1009.3mb 65f 69f
10:04pm 2.5ft 11s 4 7 mph 1010.5mb 64f 67f
9:04pm 2.5ft 8s 11
mph
1010.6mb 64f 68f
8:04pm 2.5ft 8s 11 13 mph 1010mb 64f 68f
7:04pm 2.5ft 8s 11 13 mph 1009.7mb 65f 69f
6:04pm 2.5ft 8s 13
mph
1009.8mb 65f 69f
5:04pm 2.5ft 8s 13 16 mph 1010mb 66f 69f
4:04pm 2ft 3s 13 16 mph 1010mb 66f 69f
3:04pm 2ft 6s 13 16 mph 1009.9mb 67f 69f
2:04pm  -   -  16 20 mph 1010.2mb 67f 68f
1:04pm 2.5ft 11s 13 16 mph 1010.5mb 67f 68f
12:04pm 2.5ft 11s 11 13 mph 1011mb 67f 67f
11:04am 2.5ft 8s 11 13 mph 1010.9mb 67f 66f
10:04am 2.5ft 11s 9 11 mph 1010.9mb 66f 66f
9:04am 2.5ft 11s 7
mph
1010.7mb 66f 67f
8:04am 3ft 8s 4
mph
1010.5mb 65f 65f
7:04am 3ft 11s 7 9 mph 1009.8mb 65f 65f
6:04am 2.5ft 11s 9
mph
1009.4mb 65f 65f
5:04am 2.5ft 11s 7 9 mph 1008.5mb 65f 65f
4:04am 2.5ft 11s 7
mph
1008mb 66f 65f
3:04am 2.5ft 11s 11 13 mph 1007.8mb 66f 66f
2:04am 3ft 6s 11
mph
1007.4mb 66f 67f
1:04am 2.5ft 8s 9 11 mph 1007.5mb 67f 67f
12:04am 2.5ft 11s 4 7 mph 1007.5mb 67f 67f
Sat 08/01 11:04pm 3ft 8s 2 4 mph 1007.3mb 67f 68f
10:04pm 3ft 11s  -  2 mph 1007.2mb 67f 69f
9:04pm 3ft 8s 4 7 mph 1006.9mb 67f 70f
8:04pm 2.5ft 11s 9
mph
1005.9mb 67f 72f
7:04pm 2.5ft 8s 4 7 mph 1005.1mb 67f 71f
6:04pm 2ft 8s 9
mph
1004.6mb 67f 71f
5:04pm 2.5ft 8s 13 16 mph 1004.4mb 67f 69f
4:04pm 2.5ft 11s 11 13 mph 1004.3mb 67f 70f
3:04pm 2.5ft 8s 9 11 mph 1004.5mb 67f 71f
2:04pm 2ft 8s 9
mph
1004.8mb 67f 70f
1:04pm 2ft 6s 7 9 mph 1005.3mb 67f 71f
12:04pm 2.5ft 8s 9
mph
1005.6mb 66f 70f
11:04am 2.5ft 8s 11
mph
1005.5mb 66f 68f
10:04am 2ft 8s 11 13 mph 1005.6mb 67f 68f
9:04am 2.5ft 6s 13
mph
1005.7mb 67f 67f
8:04am 2.5ft 8s 9 11 mph 1005.7mb 66f 67f
7:04am 2ft 8s 7 9 mph 1006.2mb 66f 67f
6:04am 1.6ft 8s 7 9 mph 1006.2mb 66f 66f
5:04am 1.6ft 8s 7
mph
1006.2mb 66f 66f
4:04am 1.6ft 11s 7 9 mph 1006.2mb 67f 67f
3:04am 2ft 6s 9 11 mph 1006.4mb 67f 67f
2:04am 1.6ft 8s 7 9 mph 1006.7mb 67f 68f
1:04am 1.6ft 8s 7 9 mph 1007mb 67f 69f
12:04am 1.6ft 8s 9
mph
1007.3mb 67f 69f
Fri 07/31 11:04pm 1.6ft 11s 4 7 mph 1007.3mb 67f 68f
10:04pm 2ft 8s 4
mph
1007.1mb 67f 69f
9:04pm 1.6ft 8s 4
mph
1006.7mb 67f 70f
8:04pm 2ft 8s 4
mph
1006.6mb 67f 70f
6:04pm 2ft 8s 7 9 mph 1005.8mb 67f 75f
5:04pm 1.3ft 2s 9 13 mph 1005.9mb 67f 73f
4:04pm 1.6ft 5s 11 13 mph 1005.6mb 67f 73f
3:04pm 2ft 8s 9 11 mph 1005.6mb 67f 73f
2:04pm 1.6ft 5s 11 16 mph 1005.7mb 67f 74f
1:04pm 2.5ft 11s 7 9 mph 1005.9mb 68f 70f
12:04pm 2.5ft 11s 11 13 mph 1006.2mb 67f 70f
11:04am 2.5ft 8s 9 11 mph 1006.7mb 67f 68f
10:04am 2.5ft 8s 9
mph
1007mb 67f 69f
9:04am 2.5ft 8s 7
mph
1007.2mb 66f 68f
8:04am 2.5ft 11s 7 9 mph 1007.3mb 66f 67f
7:04am 2.5ft 11s 9 11 mph 1007.2mb 66f 66f
6:04am 2.5ft 11s 9 11 mph 1006.7mb 66f 67f
5:04am 3ft 11s 9 11 mph 1006.2mb 66f 67f
4:04am 2.5ft 11s 9 11 mph 1006.2mb 66f 67f
3:04am 2.5ft 11s 9
mph
1006.2mb 66f 68f
2:04am 3ft 11s 7 9 mph 1006.3mb 66f 67f
1:04am 3ft 5s 7 9 mph 1006.3mb 67f 68f